HKEL

Details ICAO HKEL (EDL)
Name ELDORET INTL
Region Kenya
Timezone Africa/Nairobi (UTC+3.0)
Plans Departing 20
Arriving 25
Stats Elevation 6,941 ft / 2,116 m (AMSL)
Location 0.404011° 35.236700°
Runways 1
Magnetic Variation 1.350° E
Sunrise 2018-12-18 03:33:55 UTC / 2018-12-18 06:33:55 Local
Sunset 2018-12-18 15:39:47 UTC / 2018-12-18 18:39:47 Local
Advertisement - Login to hide

Runways

ID Width Length Bearing (true/mag) Surface Threshold Overrun Markings Lighting
08 148 ft / 45 m 11,473 ft / 3,497 m 78.64° / 77.29° ASPHALT 0 ft / 0 m 0 ft / 0 m APP EDGE THRESHOLD ALSF-I
26 148 ft / 45 m 11,473 ft / 3,497 m 258.64° / 257.29° ASPHALT 0 ft / 0 m 0 ft / 0 m APP EDGE THRESHOLD

Map

Weather


0- 5 10 15 20 25 30 35+ Temperature / °C

Clouds and Precipitation
Forecast for 2018-12-18 18:00 UTC. Updated an hour ago

Ground ~20,000 ft ~40,000 ft Winds

METAR

HKEL 181600Z 20003KT 9999 FEW021CB BKN080 20/12 Q1023

TAF

TAF TAF HKEL 181100Z 1812/1912 11010KT 9999 FEW025CB SCT026 BECMG 1820/1823 12005KT CAVOK BECMG 1908/1911 09010KT 9999 FEW024CB SCT025

Frequencies

Approach 119.40 MHz
Tower 118.40 MHz
Approach 121.10 MHz RADAR
Warning: Do not use this data for real-world aviation or navigation. No guarantee of current accuracy is given.